createdAt,value
2023-05-03T00:00:46.486Z,0.00
2023-05-03T00:01:46.499Z,0.00
2023-05-03T00:02:46.562Z,0.00
2023-05-03T00:03:46.465Z,0.00
2023-05-03T00:04:46.618Z,0.00
2023-05-03T00:05:46.539Z,0.00
2023-05-03T00:06:46.542Z,0.00
2023-05-03T00:07:46.464Z,0.00
2023-05-03T00:08:46.471Z,0.00
2023-05-03T00:09:46.457Z,0.00
2023-05-03T00:10:46.468Z,0.00
2023-05-03T00:11:46.461Z,0.00
2023-05-03T00:12:46.470Z,0.00
2023-05-03T00:13:46.456Z,0.00
2023-05-03T00:14:46.455Z,0.00
2023-05-03T00:15:46.458Z,0.00
2023-05-03T00:16:46.507Z,0.00
2023-05-03T00:17:46.510Z,0.00
2023-05-03T00:18:47.785Z,0.00
2023-05-03T00:19:46.453Z,0.00
2023-05-03T00:20:46.460Z,0.00
2023-05-03T00:21:46.458Z,0.00
2023-05-03T00:22:46.459Z,0.00
2023-05-03T00:23:46.453Z,0.00
2023-05-03T00:24:46.464Z,0.00
2023-05-03T00:25:46.453Z,0.00
2023-05-03T00:26:46.452Z,0.00
2023-05-03T00:27:46.458Z,0.00
2023-05-03T00:28:46.456Z,0.00
2023-05-03T00:29:46.452Z,0.00
2023-05-03T00:30:46.502Z,0.00
2023-05-03T00:31:46.463Z,0.00
2023-05-03T00:32:46.580Z,0.00
2023-05-03T00:33:46.456Z,0.00
2023-05-03T00:34:46.465Z,0.00
2023-05-03T00:35:46.449Z,0.00
2023-05-03T00:36:46.450Z,0.00
2023-05-03T00:37:46.451Z,0.00
2023-05-03T00:38:46.462Z,0.00
2023-05-03T00:39:46.465Z,0.00
2023-05-03T00:40:46.461Z,0.00
2023-05-03T00:41:46.448Z,0.00
2023-05-03T00:42:46.480Z,0.00
2023-05-03T00:43:46.457Z,0.00
2023-05-03T00:44:46.506Z,0.00
2023-05-03T00:45:46.444Z,0.00
2023-05-03T00:46:46.502Z,0.00
2023-05-03T00:47:46.520Z,0.00
2023-05-03T00:48:46.469Z,0.00
2023-05-03T00:49:46.444Z,0.00
2023-05-03T00:50:46.455Z,0.00
2023-05-03T00:51:46.440Z,0.00
2023-05-03T00:52:46.448Z,0.00
2023-05-03T00:53:46.440Z,0.00
2023-05-03T00:54:46.439Z,0.00
2023-05-03T00:55:46.446Z,0.00
2023-05-03T00:56:51.600Z,0.00
2023-05-03T00:57:46.442Z,0.00
2023-05-03T00:58:46.441Z,0.00
2023-05-03T00:59:46.437Z,0.00
2023-05-03T01:00:46.445Z,0.00
2023-05-03T01:01:46.455Z,0.00
2023-05-03T01:02:46.678Z,0.00
2023-05-03T01:03:46.718Z,0.00
2023-05-03T01:04:46.457Z,0.00
2023-05-03T01:05:46.440Z,0.00
2023-05-03T01:06:46.483Z,0.00
2023-05-03T01:07:46.441Z,0.00
2023-05-03T01:08:46.441Z,0.00
2023-05-03T01:09:46.430Z,0.00
2023-05-03T01:10:46.475Z,0.00
2023-05-03T01:11:46.445Z,0.00
2023-05-03T01:12:46.432Z,0.00
2023-05-03T01:13:46.425Z,0.00
2023-05-03T01:14:46.422Z,0.00
2023-05-03T01:15:46.468Z,0.00
2023-05-03T01:16:46.424Z,0.00
2023-05-03T01:17:46.485Z,0.00
2023-05-03T01:18:46.424Z,0.00
2023-05-03T01:19:46.418Z,0.00
2023-05-03T01:20:46.445Z,0.00
2023-05-03T01:21:46.421Z,0.00
2023-05-03T01:22:46.422Z,0.00
2023-05-03T01:23:46.421Z,0.00
2023-05-03T01:24:46.427Z,0.00
2023-05-03T01:25:46.409Z,0.00
2023-05-03T01:26:46.415Z,0.00
2023-05-03T01:27:46.417Z,0.00
2023-05-03T01:28:46.416Z,0.00
2023-05-03T01:29:46.414Z,0.00
2023-05-03T01:30:46.416Z,0.00
2023-05-03T01:31:46.520Z,0.00
2023-05-03T01:32:46.444Z,0.00
2023-05-03T01:33:46.414Z,0.00
2023-05-03T01:34:46.431Z,0.00
2023-05-03T01:35:46.411Z,0.00
2023-05-03T01:36:46.435Z,0.00
2023-05-03T01:37:46.417Z,0.00
2023-05-03T01:38:46.405Z,0.00
2023-05-03T01:39:46.404Z,0.00
2023-05-03T01:40:46.411Z,0.00
2023-05-03T01:41:46.405Z,0.00
2023-05-03T01:42:46.418Z,0.00
2023-05-03T01:43:46.418Z,0.00
2023-05-03T01:44:46.416Z,0.00
2023-05-03T01:45:46.453Z,0.00
2023-05-03T01:46:46.407Z,0.00
2023-05-03T01:47:46.433Z,0.00
2023-05-03T01:48:46.405Z,0.00
2023-05-03T01:49:46.399Z,0.00
2023-05-03T01:50:46.402Z,0.00
2023-05-03T01:51:46.391Z,0.00
2023-05-03T01:52:46.430Z,0.00
2023-05-03T01:53:46.396Z,0.00
2023-05-03T01:54:46.398Z,0.00
2023-05-03T01:55:46.394Z,0.00
2023-05-03T01:56:46.393Z,0.00
2023-05-03T01:57:46.394Z,0.00
2023-05-03T01:58:46.397Z,0.00
2023-05-03T01:59:46.391Z,0.00
2023-05-03T02:00:46.444Z,0.00
2023-05-03T02:01:46.387Z,0.00
2023-05-03T02:02:46.437Z,0.00
2023-05-03T02:03:46.386Z,0.00
2023-05-03T02:04:46.444Z,0.00
2023-05-03T02:05:46.408Z,0.00
2023-05-03T02:06:46.445Z,0.00
2023-05-03T02:07:46.387Z,0.00
2023-05-03T02:08:46.407Z,0.00
2023-05-03T02:09:46.381Z,0.00
2023-05-03T02:10:46.398Z,0.00
2023-05-03T02:11:46.373Z,0.00
2023-05-03T02:12:46.375Z,0.00
2023-05-03T02:13:46.378Z,0.00
2023-05-03T02:14:46.375Z,0.00
2023-05-03T02:15:46.371Z,0.00
2023-05-03T02:16:46.418Z,0.00
2023-05-03T02:17:46.394Z,0.00
2023-05-03T02:18:46.379Z,0.00
2023-05-03T02:19:46.385Z,0.00
2023-05-03T02:20:46.365Z,0.00
2023-05-03T02:21:46.365Z,0.00
2023-05-03T02:22:46.368Z,0.00
2023-05-03T02:23:46.363Z,0.00
2023-05-03T02:24:46.384Z,0.00
2023-05-03T02:25:46.357Z,0.00
2023-05-03T02:26:46.360Z,0.00
2023-05-03T02:27:46.354Z,0.00
2023-05-03T02:28:46.359Z,0.00
2023-05-03T02:29:46.354Z,0.00
2023-05-03T02:30:46.357Z,0.00
2023-05-03T02:31:46.351Z,0.00
2023-05-03T02:32:46.417Z,0.00
2023-05-03T02:33:46.346Z,0.00
2023-05-03T02:34:46.352Z,0.00
2023-05-03T02:35:46.344Z,0.00
2023-05-03T02:36:46.349Z,0.00
2023-05-03T02:37:46.359Z,0.00
2023-05-03T02:38:46.342Z,0.00
2023-05-03T02:39:46.342Z,0.00
2023-05-03T02:40:46.364Z,0.00
2023-05-03T02:41:46.339Z,0.00
2023-05-03T02:42:46.341Z,0.00
2023-05-03T02:43:46.331Z,0.00
2023-05-03T02:44:46.415Z,0.00
2023-05-03T02:45:46.338Z,0.00
2023-05-03T02:46:46.479Z,0.00
2023-05-03T02:47:46.370Z,0.00
2023-05-03T02:48:46.336Z,0.00
2023-05-03T02:49:46.329Z,0.00
2023-05-03T02:50:46.324Z,0.00
2023-05-03T02:51:46.324Z,0.00
2023-05-03T02:52:46.325Z,0.00
2023-05-03T02:53:46.320Z,0.00
2023-05-03T02:54:46.316Z,0.00
2023-05-03T02:55:46.320Z,0.00
2023-05-03T02:56:46.328Z,0.00
2023-05-03T02:57:46.317Z,0.00
2023-05-03T02:58:46.310Z,0.00
2023-05-03T02:59:46.317Z,0.00
2023-05-03T03:00:46.306Z,0.00
2023-05-03T03:01:46.335Z,0.00
2023-05-03T03:02:46.491Z,0.00
2023-05-03T03:03:46.444Z,0.00
2023-05-03T03:04:46.303Z,0.00
2023-05-03T03:05:46.302Z,0.00
2023-05-03T03:06:46.385Z,0.00
2023-05-03T03:07:46.296Z,0.00
2023-05-03T03:08:46.293Z,0.00
2023-05-03T03:09:46.307Z,0.00
2023-05-03T03:10:46.289Z,0.00
2023-05-03T03:11:46.293Z,0.00
2023-05-03T03:12:46.316Z,0.00
2023-05-03T03:13:46.304Z,0.00
2023-05-03T03:14:46.293Z,0.00
2023-05-03T03:15:46.429Z,0.00
2023-05-03T03:16:46.283Z,0.00
2023-05-03T03:17:46.286Z,0.00
2023-05-03T03:18:46.287Z,0.00
2023-05-03T03:19:46.280Z,0.00
2023-05-03T03:20:46.280Z,0.00
2023-05-03T03:21:46.276Z,0.00
2023-05-03T03:22:46.284Z,0.00
2023-05-03T03:23:46.442Z,0.00
2023-05-03T03:24:46.272Z,0.00
2023-05-03T03:25:46.282Z,0.00
2023-05-03T03:26:46.275Z,5.63
2023-05-03T03:27:46.270Z,5.63
2023-05-03T03:28:46.312Z,5.63
2023-05-03T03:29:46.267Z,5.63
2023-05-03T03:30:46.394Z,5.63
2023-05-03T03:31:46.337Z,5.63
2023-05-03T03:32:46.305Z,5.63
2023-05-03T03:33:46.305Z,5.63
2023-05-03T03:34:46.253Z,5.63
2023-05-03T03:35:46.290Z,11.25
2023-05-03T03:36:46.251Z,11.25
2023-05-03T03:37:46.251Z,11.25
2023-05-03T03:38:46.262Z,11.25
2023-05-03T03:39:46.255Z,11.25
2023-05-03T03:40:46.267Z,11.25
2023-05-03T03:41:46.252Z,11.25
2023-05-03T03:42:46.241Z,16.88
2023-05-03T03:43:46.252Z,16.88
2023-05-03T03:44:46.258Z,16.88
2023-05-03T03:45:46.239Z,16.88
2023-05-03T03:46:46.295Z,16.88
2023-05-03T03:47:46.344Z,16.88
2023-05-03T03:48:46.237Z,22.50
2023-05-03T03:49:46.254Z,22.50
2023-05-03T03:50:46.230Z,22.50
2023-05-03T03:51:46.232Z,22.50
2023-05-03T03:52:46.269Z,22.50
2023-05-03T03:53:46.232Z,28.13
2023-05-03T03:54:46.221Z,28.13
2023-05-03T03:55:46.220Z,28.13
2023-05-03T03:56:46.216Z,28.13
2023-05-03T03:57:46.218Z,28.13
2023-05-03T03:58:46.230Z,28.13
2023-05-03T03:59:46.220Z,33.75
2023-05-03T04:00:46.235Z,33.75
2023-05-03T04:01:46.233Z,33.75
2023-05-03T04:02:47.311Z,33.75
2023-05-03T04:03:46.345Z,33.75
2023-05-03T04:04:46.202Z,33.75
2023-05-03T04:05:46.203Z,39.38
2023-05-03T04:06:46.336Z,39.38
2023-05-03T04:07:46.238Z,39.38
2023-05-03T04:08:46.203Z,39.38
2023-05-03T04:09:46.198Z,39.38
2023-05-03T04:10:46.188Z,39.38
2023-05-03T04:11:46.189Z,45.00
2023-05-03T04:12:46.191Z,45.00
2023-05-03T04:13:46.192Z,45.00
2023-05-03T04:14:46.181Z,45.00
2023-05-03T04:15:46.186Z,45.00
2023-05-03T04:16:46.254Z,50.63
2023-05-03T04:17:46.209Z,50.63
2023-05-03T04:18:46.177Z,50.63
2023-05-03T04:19:46.178Z,50.63
2023-05-03T04:20:46.177Z,50.63
2023-05-03T04:21:46.187Z,50.63
2023-05-03T04:22:46.181Z,56.25
2023-05-03T04:23:46.167Z,56.25
2023-05-03T04:24:46.168Z,56.25
2023-05-03T04:25:46.178Z,56.25
2023-05-03T04:26:46.184Z,56.25
2023-05-03T04:27:46.176Z,61.88
2023-05-03T04:28:46.178Z,61.88
2023-05-03T04:29:46.171Z,61.88
2023-05-03T04:30:46.223Z,61.88
2023-05-03T04:31:46.162Z,61.88
2023-05-03T04:32:46.214Z,67.50
2023-05-03T04:33:46.156Z,67.50
2023-05-03T04:34:48.487Z,67.50
2023-05-03T04:35:46.151Z,67.50
2023-05-03T04:36:46.149Z,67.50
2023-05-03T04:37:46.150Z,73.13
2023-05-03T04:38:46.148Z,73.13
2023-05-03T04:39:46.166Z,73.13
2023-05-03T04:40:46.141Z,73.13
2023-05-03T04:41:46.137Z,73.13
2023-05-03T04:42:46.146Z,73.13
2023-05-03T04:43:46.141Z,78.75
2023-05-03T04:44:46.130Z,78.75
2023-05-03T04:45:46.134Z,78.75
2023-05-03T04:46:47.605Z,78.75
2023-05-03T04:47:46.146Z,78.75
2023-05-03T04:48:46.144Z,78.75
2023-05-03T04:49:46.120Z,84.38
2023-05-03T04:50:46.132Z,84.38
2023-05-03T04:51:46.120Z,84.38
2023-05-03T04:52:46.123Z,84.38
2023-05-03T04:53:46.117Z,84.38
2023-05-03T04:54:46.113Z,84.38
2023-05-03T04:55:46.113Z,84.38
2023-05-03T04:56:46.107Z,90.00
2023-05-03T04:57:46.110Z,90.00
2023-05-03T04:58:46.103Z,90.00
2023-05-03T04:59:46.123Z,90.00
2023-05-03T05:00:46.098Z,90.00
2023-05-03T05:01:46.147Z,90.00
2023-05-03T05:02:46.126Z,90.00
2023-05-03T05:03:46.243Z,90.00
2023-05-03T05:04:46.112Z,95.63
2023-05-03T05:05:46.098Z,95.63
2023-05-03T05:06:46.134Z,95.63
2023-05-03T05:07:46.083Z,95.63
2023-05-03T05:08:46.081Z,95.63
2023-05-03T05:09:46.086Z,95.63
2023-05-03T05:10:46.091Z,95.63
2023-05-03T05:11:46.086Z,101.25
2023-05-03T05:12:46.078Z,101.25
2023-05-03T05:13:46.078Z,101.25
2023-05-03T05:14:46.074Z,101.25
2023-05-03T05:15:46.072Z,101.25
2023-05-03T05:16:46.228Z,101.25
2023-05-03T05:17:46.200Z,106.88
2023-05-03T05:18:46.073Z,106.88
2023-05-03T05:19:46.075Z,106.88
2023-05-03T05:20:46.085Z,106.88
2023-05-03T05:21:46.067Z,106.88
2023-05-03T05:22:46.060Z,106.88
2023-05-03T05:23:46.059Z,106.88
2023-05-03T05:24:46.054Z,112.50
2023-05-03T05:25:46.056Z,112.50
2023-05-03T05:26:46.050Z,112.50
2023-05-03T05:27:46.051Z,112.50
2023-05-03T05:28:46.059Z,112.50
2023-05-03T05:29:46.061Z,118.13
2023-05-03T05:30:46.057Z,118.13
2023-05-03T05:31:46.087Z,118.13
2023-05-03T05:32:46.075Z,118.13
2023-05-03T05:33:46.040Z,118.13
2023-05-03T05:34:46.038Z,118.13
2023-05-03T05:35:46.036Z,123.75
2023-05-03T05:36:46.057Z,123.75
2023-05-03T05:37:46.046Z,123.75
2023-05-03T05:38:46.036Z,123.75
2023-05-03T05:39:46.030Z,123.75
2023-05-03T05:40:46.033Z,123.75
2023-05-03T05:41:46.027Z,129.38
2023-05-03T05:42:46.022Z,129.38
2023-05-03T05:43:46.045Z,129.38
2023-05-03T05:44:46.021Z,129.38
2023-05-03T05:45:46.036Z,129.38
2023-05-03T05:46:46.047Z,135.00
2023-05-03T05:47:46.040Z,135.00
2023-05-03T05:48:46.007Z,135.00
2023-05-03T05:49:46.014Z,135.00
2023-05-03T05:50:46.014Z,135.00
2023-05-03T05:51:46.009Z,140.63
2023-05-03T05:52:46.042Z,140.63
2023-05-03T05:53:46.011Z,140.63
2023-05-03T05:54:46.021Z,140.63
2023-05-03T05:55:46.008Z,140.63
2023-05-03T05:56:46.003Z,140.63
2023-05-03T05:57:46.011Z,146.25
2023-05-03T05:58:46.003Z,146.25
2023-05-03T05:59:46.000Z,146.25
2023-05-03T06:00:45.997Z,146.25
2023-05-03T06:01:46.062Z,146.25
2023-05-03T06:02:46.045Z,151.88
2023-05-03T06:03:45.999Z,151.88
2023-05-03T06:04:46.007Z,151.88
2023-05-03T06:05:46.199Z,146.25
2023-05-03T06:06:46.042Z,146.25
2023-05-03T06:07:45.994Z,151.88
2023-05-03T06:08:46.012Z,151.88
2023-05-03T06:09:46.007Z,151.88
2023-05-03T06:10:45.997Z,151.88
2023-05-03T06:11:45.984Z,151.88
2023-05-03T06:12:45.988Z,157.50
2023-05-03T06:13:45.985Z,157.50
2023-05-03T06:14:59.068Z,157.50
2023-05-03T06:15:45.979Z,157.50
2023-05-03T06:16:45.993Z,163.13
2023-05-03T06:17:46.031Z,163.13
2023-05-03T06:18:45.981Z,163.13
2023-05-03T06:19:45.982Z,168.75
2023-05-03T06:20:45.977Z,168.75
2023-05-03T06:21:45.997Z,168.75
2023-05-03T06:22:45.985Z,168.75
2023-05-03T06:23:45.970Z,174.38
2023-05-03T06:24:45.989Z,174.38
2023-05-03T06:25:45.971Z,174.38
2023-05-03T06:26:45.990Z,185.63
2023-05-03T06:27:45.963Z,180.00
2023-05-03T06:28:45.962Z,180.00
2023-05-03T06:29:45.960Z,180.00
2023-05-03T06:30:45.988Z,185.63
2023-05-03T06:31:46.044Z,185.63
2023-05-03T06:32:45.999Z,185.63
2023-05-03T06:33:45.960Z,185.63
2023-05-03T06:34:45.952Z,191.25
2023-05-03T06:35:45.952Z,191.25
2023-05-03T06:36:45.953Z,191.25
2023-05-03T06:37:45.961Z,196.88
2023-05-03T06:38:45.956Z,196.88
2023-05-03T06:39:45.953Z,196.88
2023-05-03T06:40:45.972Z,196.88
2023-05-03T06:41:45.950Z,202.50
2023-05-03T06:42:45.944Z,202.50
2023-05-03T06:43:45.951Z,202.50
2023-05-03T06:44:45.953Z,202.50
2023-05-03T06:45:45.947Z,208.13
2023-05-03T06:46:45.970Z,208.13
2023-05-03T06:47:46.026Z,208.13
2023-05-03T06:48:45.953Z,208.13
2023-05-03T06:49:45.953Z,213.75
2023-05-03T06:50:45.936Z,213.75
2023-05-03T06:51:45.947Z,213.75
2023-05-03T06:52:45.949Z,219.38
2023-05-03T06:53:45.935Z,219.38
2023-05-03T06:54:45.940Z,213.75
2023-05-03T06:55:45.940Z,213.75
2023-05-03T06:56:45.955Z,219.38
2023-05-03T06:57:45.933Z,219.38
2023-05-03T06:58:45.934Z,225.00
2023-05-03T06:59:45.937Z,225.00
2023-05-03T07:00:45.929Z,230.63
2023-05-03T07:01:45.990Z,230.63
2023-05-03T07:02:46.017Z,236.25
2023-05-03T07:03:46.021Z,236.25
2023-05-03T07:04:45.929Z,241.88
2023-05-03T07:05:45.923Z,241.88
2023-05-03T07:06:55.887Z,247.50
2023-05-03T07:07:45.932Z,247.50
2023-05-03T07:08:46.127Z,253.13
2023-05-03T07:09:45.939Z,253.13
2023-05-03T07:10:45.935Z,258.75
2023-05-03T07:11:45.930Z,258.75
2023-05-03T07:12:46.089Z,264.38
2023-05-03T07:13:45.923Z,270.00
2023-05-03T07:14:45.924Z,270.00
2023-05-03T07:15:45.994Z,275.63
2023-05-03T07:16:45.968Z,281.25
2023-05-03T07:17:45.963Z,286.88
2023-05-03T07:18:45.921Z,286.88
2023-05-03T07:19:45.919Z,292.50
2023-05-03T07:20:45.935Z,298.13
2023-05-03T07:21:45.922Z,292.50
2023-05-03T07:22:45.923Z,298.13
2023-05-03T07:23:45.922Z,303.75
2023-05-03T07:24:45.943Z,309.38
2023-05-03T07:25:45.922Z,315.00
2023-05-03T07:26:47.794Z,320.63
2023-05-03T07:27:45.918Z,331.88
2023-05-03T07:28:45.996Z,354.38
2023-05-03T07:29:45.919Z,382.50
2023-05-03T07:30:45.923Z,421.88
2023-05-03T07:31:45.924Z,455.63
2023-05-03T07:32:46.081Z,478.13
2023-05-03T07:33:45.980Z,495.00
2023-05-03T07:34:45.923Z,500.63
2023-05-03T07:35:45.933Z,511.88
2023-05-03T07:36:45.924Z,523.13
2023-05-03T07:37:45.918Z,523.13
2023-05-03T07:38:45.938Z,540.00
2023-05-03T07:39:45.931Z,556.88
2023-05-03T07:40:45.928Z,573.75
2023-05-03T07:41:45.930Z,585.00
2023-05-03T07:42:45.929Z,596.25
2023-05-03T07:43:45.927Z,613.13
2023-05-03T07:44:46.240Z,613.13
2023-05-03T07:45:45.949Z,630.00
2023-05-03T07:46:45.933Z,646.88
2023-05-03T07:47:45.993Z,675.00
2023-05-03T07:48:45.956Z,697.50
2023-05-03T07:49:45.940Z,731.25
2023-05-03T07:50:45.940Z,793.13
2023-05-03T07:51:45.946Z,900.00
2023-05-03T07:52:45.948Z,1530.00
2023-05-03T07:53:45.942Z,2716.88
2023-05-03T07:54:46.004Z,3397.50
2023-05-03T07:55:45.947Z,3510.00
2023-05-03T07:56:45.957Z,3498.75
2023-05-03T07:57:45.950Z,3493.13
2023-05-03T07:59:45.971Z,3588.75
2023-05-03T08:00:46.015Z,3566.25
2023-05-03T08:01:45.965Z,3515.63
2023-05-03T08:02:46.102Z,3560.63
2023-05-03T08:03:46.178Z,3678.75
2023-05-03T08:04:46.182Z,3729.38
2023-05-03T08:05:46.086Z,3785.63
2023-05-03T08:06:46.093Z,3903.75
2023-05-03T08:07:45.985Z,4021.88
2023-05-03T08:08:45.997Z,4016.25
2023-05-03T08:09:46.004Z,3948.75
2023-05-03T08:10:46.001Z,3892.50
2023-05-03T08:11:46.010Z,3667.50
2023-05-03T08:12:46.020Z,3566.25
2023-05-03T08:13:46.018Z,3594.38
2023-05-03T08:14:46.028Z,3622.50
2023-05-03T08:15:46.085Z,3526.88
2023-05-03T08:16:46.064Z,3555.00
2023-05-03T08:17:46.070Z,3785.63
2023-05-03T08:18:46.050Z,4190.63
2023-05-03T08:19:46.055Z,4426.88
2023-05-03T08:20:46.058Z,4398.75
2023-05-03T08:21:46.071Z,4297.50
2023-05-03T08:22:46.079Z,4218.75
2023-05-03T08:23:46.087Z,4151.25
2023-05-03T08:24:46.090Z,4066.88
2023-05-03T08:25:46.101Z,4095.00
2023-05-03T08:26:46.105Z,4179.38
2023-05-03T08:27:46.115Z,4145.63
2023-05-03T08:28:46.122Z,4100.63
2023-05-03T08:29:46.133Z,4134.38
2023-05-03T08:30:46.135Z,4173.75
2023-05-03T08:31:46.149Z,4117.50
2023-05-03T08:32:46.231Z,4038.75
2023-05-03T08:33:46.154Z,3853.13
2023-05-03T08:34:46.171Z,3808.13
2023-05-03T08:35:48.618Z,2885.63
2023-05-03T08:36:46.191Z,1231.88
2023-05-03T08:37:46.201Z,933.75
2023-05-03T08:38:46.206Z,928.13
2023-05-03T08:39:46.205Z,945.00
2023-05-03T08:40:46.221Z,956.25
2023-05-03T08:41:46.239Z,978.75
2023-05-03T08:42:46.241Z,990.00
2023-05-03T08:43:46.243Z,1046.25
2023-05-03T08:44:46.255Z,2013.75
2023-05-03T08:45:46.254Z,3425.63
2023-05-03T08:46:46.321Z,3796.88
2023-05-03T08:47:46.326Z,3926.25
2023-05-03T08:48:46.417Z,4089.38
2023-05-03T08:49:46.298Z,4145.63
2023-05-03T08:50:46.302Z,4190.63
2023-05-03T08:51:46.313Z,4303.13
2023-05-03T08:52:46.327Z,4303.13
2023-05-03T08:53:46.333Z,4145.63
2023-05-03T08:54:47.236Z,4201.88
2023-05-03T08:55:46.355Z,4370.63
2023-05-03T08:56:46.375Z,2913.75
2023-05-03T08:57:46.377Z,2767.50
2023-05-03T08:58:46.400Z,2801.25
2023-05-03T08:59:46.394Z,843.75
2023-05-03T09:00:46.418Z,5141.25
2023-05-03T09:01:46.493Z,4938.75
2023-05-03T09:02:46.474Z,4899.38
2023-05-03T09:03:48.860Z,5175.00
2023-05-03T09:04:46.625Z,4449.38
2023-05-03T09:05:46.475Z,1395.00
2023-05-03T09:06:46.531Z,1226.25
2023-05-03T09:07:46.504Z,1400.63
2023-05-03T09:08:46.506Z,4516.88
2023-05-03T09:09:47.385Z,4336.88
2023-05-03T09:10:46.538Z,4972.50
2023-05-03T09:11:46.553Z,4995.00
2023-05-03T09:12:46.564Z,4860.00
2023-05-03T09:13:46.573Z,4831.88
2023-05-03T09:14:46.592Z,4899.38
2023-05-03T09:15:46.599Z,5006.25
2023-05-03T09:16:46.823Z,5028.75
2023-05-03T09:17:46.659Z,5068.13
2023-05-03T09:18:46.642Z,4995.00
2023-05-03T09:19:46.658Z,4995.00
2023-05-03T09:20:46.772Z,5107.50
2023-05-03T09:21:46.678Z,5265.00
2023-05-03T09:22:46.707Z,5439.38
2023-05-03T09:23:46.710Z,5484.38
2023-05-03T09:24:46.739Z,5467.50
2023-05-03T09:25:46.741Z,5535.00
2023-05-03T09:26:46.768Z,5608.13
2023-05-03T09:27:46.784Z,5636.25
2023-05-03T09:28:46.795Z,5563.13
2023-05-03T09:29:46.820Z,5298.75
2023-05-03T09:30:46.837Z,5040.00
2023-05-03T09:31:46.919Z,5011.88
2023-05-03T09:32:46.913Z,5141.25
2023-05-03T09:33:46.874Z,5343.75
2023-05-03T09:34:46.895Z,5411.25
2023-05-03T09:35:46.910Z,5490.00
2023-05-03T09:36:47.030Z,5523.75
2023-05-03T09:37:46.942Z,5473.13
2023-05-03T09:38:46.963Z,5529.38
2023-05-03T09:39:46.990Z,5540.63
2023-05-03T09:40:46.992Z,5501.25
2023-05-03T09:41:47.016Z,5388.75
2023-05-03T09:42:47.028Z,5540.63
2023-05-03T09:43:47.083Z,5675.63
2023-05-03T09:44:47.083Z,5866.88
2023-05-03T09:45:47.149Z,6024.38
2023-05-03T09:46:47.120Z,6069.38
2023-05-03T09:47:47.141Z,6007.50
2023-05-03T09:48:47.140Z,5917.50
2023-05-03T09:49:47.149Z,5872.50
2023-05-03T09:50:47.176Z,5906.25
2023-05-03T09:51:47.191Z,5985.00
2023-05-03T09:52:47.236Z,6030.00
2023-05-03T09:53:47.242Z,6041.25
2023-05-03T09:54:47.255Z,5889.38
2023-05-03T09:55:47.273Z,6024.38
2023-05-03T09:56:47.304Z,6328.13
2023-05-03T09:57:47.314Z,6463.13
2023-05-03T09:58:47.339Z,6373.13
2023-05-03T09:59:47.356Z,6131.25
2023-05-03T10:00:47.378Z,6086.25
2023-05-03T10:01:47.509Z,6120.00
2023-05-03T10:02:47.506Z,6131.25
2023-05-03T10:03:47.493Z,6181.88
2023-05-03T10:04:47.461Z,6176.25
2023-05-03T10:05:47.488Z,6170.63
2023-05-03T10:06:47.618Z,6249.38
2023-05-03T10:07:47.525Z,6283.13
2023-05-03T10:08:47.673Z,6305.63
2023-05-03T10:09:47.571Z,6277.50
2023-05-03T10:10:47.602Z,6238.13
2023-05-03T10:11:47.613Z,6311.25
2023-05-03T10:12:47.640Z,5028.75
2023-05-03T10:13:47.651Z,2958.75
2023-05-03T10:14:47.773Z,5653.13
2023-05-03T10:15:47.707Z,6384.38
2023-05-03T10:16:47.744Z,6221.25
2023-05-03T10:17:48.751Z,6120.00
2023-05-03T10:18:47.776Z,6013.13
2023-05-03T10:19:47.796Z,5979.38
2023-05-03T10:20:47.820Z,6030.00
2023-05-03T10:21:47.843Z,6080.63
2023-05-03T10:22:47.867Z,6153.75
2023-05-03T10:23:47.900Z,6159.38
2023-05-03T10:24:47.934Z,6097.50
2023-05-03T10:25:47.938Z,6091.88
2023-05-03T10:26:47.964Z,6091.88
2023-05-03T10:27:47.990Z,5979.38
2023-05-03T10:28:48.008Z,5883.75
2023-05-03T10:29:48.025Z,5816.25
2023-05-03T10:30:48.066Z,5720.63
2023-05-03T10:31:48.482Z,5653.13
2023-05-03T10:32:48.132Z,5602.50
2023-05-03T10:33:48.126Z,5630.63
2023-05-03T10:34:48.166Z,5698.13
2023-05-03T10:35:48.194Z,5737.50
2023-05-03T10:36:49.914Z,5765.63
2023-05-03T10:37:48.221Z,5743.13
2023-05-03T10:38:48.248Z,5883.75
2023-05-03T10:39:48.267Z,6086.25
2023-05-03T10:40:48.334Z,6395.63
2023-05-03T10:41:48.322Z,6367.50
2023-05-03T10:42:48.345Z,6097.50
2023-05-03T10:43:48.388Z,5833.13
2023-05-03T10:44:48.400Z,5506.88
2023-05-03T10:45:48.999Z,5366.25
2023-05-03T10:46:48.475Z,2846.25
2023-05-03T10:47:48.491Z,1012.50
2023-05-03T10:48:48.514Z,2373.75
2023-05-03T10:49:48.542Z,5630.63
2023-05-03T10:50:48.553Z,5906.25
2023-05-03T10:51:48.580Z,6058.13
2023-05-03T10:52:48.605Z,6108.75
2023-05-03T10:53:48.634Z,6069.38
2023-05-03T10:54:48.657Z,5940.00
2023-05-03T10:55:48.673Z,6024.38
2023-05-03T10:56:48.724Z,6187.50
2023-05-03T10:57:48.726Z,6249.38
2023-05-03T10:58:48.773Z,6418.13
2023-05-03T10:59:48.777Z,6401.25
2023-05-03T11:00:48.798Z,6255.00
2023-05-03T11:01:48.899Z,6238.13
2023-05-03T11:02:48.880Z,6288.75
2023-05-03T11:03:48.903Z,6288.75
2023-05-03T11:04:48.939Z,6356.25
2023-05-03T11:05:48.929Z,6288.75
2023-05-03T11:06:48.987Z,6148.13
2023-05-03T11:07:48.971Z,6063.75
2023-05-03T11:08:48.999Z,5990.63
2023-05-03T11:09:49.024Z,5968.13
2023-05-03T11:10:49.074Z,5889.38
2023-05-03T11:11:49.088Z,5833.13
2023-05-03T11:12:49.136Z,5866.88
2023-05-03T11:13:49.185Z,5878.13
2023-05-03T11:14:49.168Z,5608.13
2023-05-03T11:15:49.180Z,5203.13
2023-05-03T11:16:49.302Z,4854.38
2023-05-03T11:17:49.251Z,4539.38
2023-05-03T11:18:49.266Z,4528.13
2023-05-03T11:19:49.288Z,4741.88
2023-05-03T11:20:49.312Z,5175.00
2023-05-03T11:21:49.366Z,5568.75
2023-05-03T11:22:49.368Z,5816.25
2023-05-03T11:23:49.392Z,5771.25
2023-05-03T11:24:49.417Z,5821.88
2023-05-03T11:25:49.452Z,5810.63
2023-05-03T11:26:49.466Z,5726.25
2023-05-03T11:27:49.534Z,5760.00
2023-05-03T11:28:49.586Z,5810.63
2023-05-03T11:29:49.552Z,5805.00
2023-05-03T11:30:49.565Z,5850.00
2023-05-03T11:31:49.658Z,5962.50
2023-05-03T11:32:49.670Z,6046.88
2023-05-03T11:33:49.659Z,6097.50
2023-05-03T11:34:49.674Z,6075.00
2023-05-03T11:35:49.735Z,5923.13
2023-05-03T11:36:49.729Z,5793.75
2023-05-03T11:37:49.772Z,5619.38
2023-05-03T11:38:50.391Z,5445.00
2023-05-03T11:39:49.816Z,5602.50
2023-05-03T11:40:49.833Z,5872.50
2023-05-03T11:41:49.907Z,5827.50
2023-05-03T11:42:49.890Z,5591.25
2023-05-03T11:44:00.506Z,5152.50
2023-05-03T11:44:50.006Z,4792.50
2023-05-03T11:45:49.994Z,4882.50
2023-05-03T11:46:50.069Z,5068.13
2023-05-03T11:47:50.125Z,5259.38
2023-05-03T11:48:50.062Z,5343.75
2023-05-03T11:49:50.083Z,5355.00
2023-05-03T11:50:50.108Z,5310.00
2023-05-03T11:51:52.814Z,5411.25
2023-05-03T11:52:50.163Z,5692.50
2023-05-03T11:53:50.186Z,5641.88
2023-05-03T11:54:50.212Z,5647.50
2023-05-03T11:55:50.254Z,5664.38
2023-05-03T11:56:51.412Z,5625.00
2023-05-03T11:57:50.307Z,5748.75
2023-05-03T11:58:50.330Z,5720.63
2023-05-03T11:59:50.356Z,5855.63
2023-05-03T12:00:50.499Z,6080.63
2023-05-03T12:01:50.438Z,6131.25
2023-05-03T12:02:50.779Z,6176.25
2023-05-03T12:03:50.635Z,6091.88
2023-05-03T12:04:50.790Z,5996.25
2023-05-03T12:05:50.710Z,5895.00
2023-05-03T12:06:50.796Z,5715.00
2023-05-03T12:07:50.893Z,5467.50
2023-05-03T12:08:50.831Z,5411.25
2023-05-03T12:10:05.848Z,5602.50
2023-05-03T12:10:53.195Z,5698.13
2023-05-03T12:11:52.052Z,5833.13
2023-05-03T12:12:53.124Z,5900.63
2023-05-03T12:13:51.367Z,5827.50
2023-05-03T12:14:51.101Z,5748.75
2023-05-03T12:16:06.592Z,5619.38
2023-05-03T12:16:51.406Z,5613.75
2023-05-03T12:17:51.442Z,5563.13
2023-05-03T12:18:51.370Z,5388.75
2023-05-03T12:19:51.017Z,5343.75
2023-05-03T12:21:30.506Z,5383.13
2023-05-03T12:22:04.513Z,5563.13
2023-05-03T12:22:51.747Z,5686.88
2023-05-03T12:23:51.142Z,5810.63
2023-05-03T12:24:53.416Z,5816.25
2023-05-03T12:25:52.852Z,5726.25
2023-05-03T12:26:52.678Z,5535.00
2023-05-03T12:28:10.604Z,5523.75
2023-05-03T12:28:51.224Z,5608.13
2023-05-03T12:29:51.942Z,5670.00
2023-05-03T12:30:53.196Z,5625.00
2023-05-03T12:31:51.297Z,5675.63
2023-05-03T12:32:51.520Z,5709.38
2023-05-03T12:34:52.228Z,5546.25
2023-05-03T12:35:53.147Z,5388.75
2023-05-03T12:36:53.975Z,5495.63
2023-05-03T12:37:51.470Z,5540.63
2023-05-03T12:38:55.004Z,5371.88